sensor_id;sensor_type;location;lat;lon;timestamp;P1;durP1;ratioP1;P2;durP2;ratioP2
18677;SDS011;9469;51.114;13.914;2023-09-12T00:02:49;18.63;;;15.53;;
18677;SDS011;9469;51.114;13.914;2023-09-12T00:07:58;16.80;;;14.97;;
18677;SDS011;9469;51.114;13.914;2023-09-12T00:13:03;18.53;;;15.17;;
18677;SDS011;9469;51.114;13.914;2023-09-12T00:18:08;17.50;;;14.80;;
18677;SDS011;9469;51.114;13.914;2023-09-12T00:23:17;18.50;;;14.70;;
18677;SDS011;9469;51.114;13.914;2023-09-12T00:28:23;17.07;;;15.20;;
18677;SDS011;9469;51.114;13.914;2023-09-12T00:33:29;16.57;;;14.63;;
18677;SDS011;9469;51.114;13.914;2023-09-12T00:38:37;18.57;;;16.07;;
18677;SDS011;9469;51.114;13.914;2023-09-12T00:43:42;16.93;;;15.00;;
18677;SDS011;9469;51.114;13.914;2023-09-12T00:48:47;16.57;;;14.40;;
18677;SDS011;9469;51.114;13.914;2023-09-12T00:53:58;18.00;;;16.17;;
18677;SDS011;9469;51.114;13.914;2023-09-12T00:59:12;16.63;;;14.93;;
18677;SDS011;9469;51.114;13.914;2023-09-12T01:04:19;20.10;;;15.60;;
18677;SDS011;9469;51.114;13.914;2023-09-12T01:09:40;17.27;;;15.43;;
18677;SDS011;9469;51.114;13.914;2023-09-12T01:14:45;17.03;;;15.30;;
18677;SDS011;9469;51.114;13.914;2023-09-12T01:19:51;19.87;;;15.80;;
18677;SDS011;9469;51.114;13.914;2023-09-12T01:30:45;16.70;;;15.00;;
18677;SDS011;9469;51.114;13.914;2023-09-12T01:35:55;18.43;;;16.47;;
18677;SDS011;9469;51.114;13.914;2023-09-12T01:41:05;17.53;;;15.67;;
18677;SDS011;9469;51.114;13.914;2023-09-12T01:46:13;17.63;;;15.73;;
18677;SDS011;9469;51.114;13.914;2023-09-12T01:51:23;19.60;;;15.93;;
18677;SDS011;9469;51.114;13.914;2023-09-12T01:56:31;18.50;;;16.57;;
18677;SDS011;9469;51.114;13.914;2023-09-12T02:01:39;18.23;;;16.17;;
18677;SDS011;9469;51.114;13.914;2023-09-12T02:06:45;18.27;;;16.33;;
18677;SDS011;9469;51.114;13.914;2023-09-12T02:11:50;17.57;;;14.47;;
18677;SDS011;9469;51.114;13.914;2023-09-12T02:16:58;21.10;;;16.53;;
18677;SDS011;9469;51.114;13.914;2023-09-12T02:22:05;18.27;;;16.13;;
18677;SDS011;9469;51.114;13.914;2023-09-12T02:27:10;15.97;;;14.47;;
18677;SDS011;9469;51.114;13.914;2023-09-12T02:32:18;17.93;;;15.53;;
18677;SDS011;9469;51.114;13.914;2023-09-12T02:37:24;17.47;;;15.60;;
18677;SDS011;9469;51.114;13.914;2023-09-12T02:42:30;17.20;;;14.20;;
18677;SDS011;9469;51.114;13.914;2023-09-12T02:47:39;17.63;;;15.73;;
18677;SDS011;9469;51.114;13.914;2023-09-12T02:52:45;17.87;;;15.80;;
18677;SDS011;9469;51.114;13.914;2023-09-12T02:57:52;18.70;;;16.07;;
18677;SDS011;9469;51.114;13.914;2023-09-12T03:03:00;18.17;;;15.70;;
18677;SDS011;9469;51.114;13.914;2023-09-12T03:08:05;17.70;;;14.63;;
18677;SDS011;9469;51.114;13.914;2023-09-12T03:13:11;19.70;;;16.00;;
18677;SDS011;9469;51.114;13.914;2023-09-12T03:18:19;16.87;;;15.17;;
18677;SDS011;9469;51.114;13.914;2023-09-12T03:23:25;16.80;;;15.10;;
18677;SDS011;9469;51.114;13.914;2023-09-12T03:28:33;16.07;;;14.37;;
18677;SDS011;9469;51.114;13.914;2023-09-12T03:33:43;18.20;;;16.13;;
18677;SDS011;9469;51.114;13.914;2023-09-12T03:38:52;17.03;;;15.23;;
18677;SDS011;9469;51.114;13.914;2023-09-12T03:43:58;18.80;;;16.13;;
18677;SDS011;9469;51.114;13.914;2023-09-12T03:49:08;20.50;;;15.43;;
18677;SDS011;9469;51.114;13.914;2023-09-12T03:54:14;18.20;;;16.30;;
18677;SDS011;9469;51.114;13.914;2023-09-12T03:59:19;17.13;;;14.57;;
18677;SDS011;9469;51.114;13.914;2023-09-12T04:04:29;17.73;;;15.57;;
18677;SDS011;9469;51.114;13.914;2023-09-12T04:09:34;19.73;;;15.83;;
18677;SDS011;9469;51.114;13.914;2023-09-12T04:14:40;18.67;;;16.67;;
18677;SDS011;9469;51.114;13.914;2023-09-12T04:19:48;18.93;;;16.33;;
18677;SDS011;9469;51.114;13.914;2023-09-12T04:24:54;20.47;;;16.80;;
18677;SDS011;9469;51.114;13.914;2023-09-12T04:30:00;19.70;;;17.60;;
18677;SDS011;9469;51.114;13.914;2023-09-12T04:35:10;19.87;;;16.17;;
18677;SDS011;9469;51.114;13.914;2023-09-12T04:40:16;17.80;;;16.00;;
18677;SDS011;9469;51.114;13.914;2023-09-12T04:45:21;21.33;;;16.27;;
18677;SDS011;9469;51.114;13.914;2023-09-12T04:50:30;18.10;;;16.20;;
18677;SDS011;9469;51.114;13.914;2023-09-12T04:55:35;17.90;;;16.10;;
18677;SDS011;9469;51.114;13.914;2023-09-12T05:00:45;20.67;;;15.00;;
18677;SDS011;9469;51.114;13.914;2023-09-12T05:05:54;25.23;;;14.03;;
18677;SDS011;9469;51.114;13.914;2023-09-12T05:11:00;15.70;;;12.93;;
18677;SDS011;9469;51.114;13.914;2023-09-12T05:16:08;17.13;;;12.37;;
18677;SDS011;9469;51.114;13.914;2023-09-12T05:21:17;13.70;;;12.30;;
18677;SDS011;9469;51.114;13.914;2023-09-12T05:26:22;15.57;;;12.23;;
18677;SDS011;9469;51.114;13.914;2023-09-12T05:31:30;14.43;;;12.57;;
18677;SDS011;9469;51.114;13.914;2023-09-12T05:36:39;14.50;;;13.00;;
18677;SDS011;9469;51.114;13.914;2023-09-12T05:41:44;13.73;;;12.33;;
18677;SDS011;9469;51.114;13.914;2023-09-12T05:46:49;18.27;;;12.60;;
18677;SDS011;9469;51.114;13.914;2023-09-12T05:51:59;13.27;;;11.70;;
18677;SDS011;9469;51.114;13.914;2023-09-12T05:57:04;13.73;;;12.37;;
18677;SDS011;9469;51.114;13.914;2023-09-12T06:02:10;14.10;;;12.57;;
18677;SDS011;9469;51.114;13.914;2023-09-12T06:07:18;13.20;;;11.73;;
18677;SDS011;9469;51.114;13.914;2023-09-12T06:12:24;12.27;;;10.97;;
18677;SDS011;9469;51.114;13.914;2023-09-12T06:17:29;13.73;;;10.73;;
18677;SDS011;9469;51.114;13.914;2023-09-12T06:22:37;16.67;;;10.80;;
18677;SDS011;9469;51.114;13.914;2023-09-12T06:27:42;12.80;;;11.50;;
18677;SDS011;9469;51.114;13.914;2023-09-12T06:32:47;11.52;;;10.25;;
18677;SDS011;9469;51.114;13.914;2023-09-12T06:37:55;13.07;;;10.13;;
18677;SDS011;9469;51.114;13.914;2023-09-12T06:43:00;12.82;;;10.50;;
18677;SDS011;9469;51.114;13.914;2023-09-12T06:48:05;14.15;;;9.70;;
18677;SDS011;9469;51.114;13.914;2023-09-12T06:53:13;12.25;;;8.70;;
18677;SDS011;9469;51.114;13.914;2023-09-12T06:58:18;10.63;;;9.52;;
18677;SDS011;9469;51.114;13.914;2023-09-12T07:03:24;12.38;;;9.50;;
18677;SDS011;9469;51.114;13.914;2023-09-12T07:08:31;11.90;;;9.73;;
18677;SDS011;9469;51.114;13.914;2023-09-12T07:13:39;10.18;;;9.23;;
18677;SDS011;9469;51.114;13.914;2023-09-12T07:18:45;12.45;;;9.85;;
18677;SDS011;9469;51.114;13.914;2023-09-12T07:23:53;10.00;;;9.00;;
18677;SDS011;9469;51.114;13.914;2023-09-12T07:28:58;10.70;;;9.32;;
18677;SDS011;9469;51.114;13.914;2023-09-12T07:34:05;11.73;;;8.68;;
18677;SDS011;9469;51.114;13.914;2023-09-12T07:39:15;9.68;;;8.23;;
18677;SDS011;9469;51.114;13.914;2023-09-12T07:44:20;16.38;;;9.00;;
18677;SDS011;9469;51.114;13.914;2023-09-12T07:49:28;14.77;;;8.60;;
18677;SDS011;9469;51.114;13.914;2023-09-12T07:54:38;8.63;;;7.70;;
18677;SDS011;9469;51.114;13.914;2023-09-12T07:59:43;10.57;;;7.35;;
18677;SDS011;9469;51.114;13.914;2023-09-12T08:04:48;9.73;;;8.48;;
18677;SDS011;9469;51.114;13.914;2023-09-12T08:09:58;14.27;;;8.10;;
18677;SDS011;9469;51.114;13.914;2023-09-12T08:15:04;8.55;;;6.70;;
18677;SDS011;9469;51.114;13.914;2023-09-12T08:20:10;10.60;;;7.13;;
18677;SDS011;9469;51.114;13.914;2023-09-12T08:25:19;9.25;;;7.00;;
18677;SDS011;9469;51.114;13.914;2023-09-12T08:30:26;12.65;;;7.28;;
18677;SDS011;9469;51.114;13.914;2023-09-12T08:35:34;11.77;;;7.43;;
18677;SDS011;9469;51.114;13.914;2023-09-12T08:40:42;10.68;;;6.55;;
18677;SDS011;9469;51.114;13.914;2023-09-12T08:45:54;9.07;;;6.88;;
18677;SDS011;9469;51.114;13.914;2023-09-12T08:51:02;10.00;;;6.82;;
18677;SDS011;9469;51.114;13.914;2023-09-12T08:56:13;7.75;;;6.07;;
18677;SDS011;9469;51.114;13.914;2023-09-12T09:01:19;9.25;;;6.00;;
18677;SDS011;9469;51.114;13.914;2023-09-12T09:06:30;9.70;;;6.35;;
18677;SDS011;9469;51.114;13.914;2023-09-12T09:11:42;8.93;;;6.05;;
18677;SDS011;9469;51.114;13.914;2023-09-12T09:16:47;10.20;;;6.50;;
18677;SDS011;9469;51.114;13.914;2023-09-12T09:21:53;7.70;;;5.93;;
18677;SDS011;9469;51.114;13.914;2023-09-12T09:27:12;6.68;;;6.07;;
18677;SDS011;9469;51.114;13.914;2023-09-12T09:32:40;7.05;;;5.95;;
18677;SDS011;9469;51.114;13.914;2023-09-12T09:37:47;8.65;;;6.28;;
18677;SDS011;9469;51.114;13.914;2023-09-12T09:42:55;10.10;;;6.03;;
18677;SDS011;9469;51.114;13.914;2023-09-12T09:48:06;9.65;;;6.05;;
18677;SDS011;9469;51.114;13.914;2023-09-12T09:53:11;8.43;;;5.38;;
18677;SDS011;9469;51.114;13.914;2023-09-12T09:58:19;9.80;;;5.75;;
18677;SDS011;9469;51.114;13.914;2023-09-12T10:03:28;8.45;;;6.25;;
18677;SDS011;9469;51.114;13.914;2023-09-12T10:08:35;11.48;;;5.28;;
18677;SDS011;9469;51.114;13.914;2023-09-12T10:13:46;12.63;;;5.97;;
18677;SDS011;9469;51.114;13.914;2023-09-12T10:18:56;9.45;;;6.15;;
18677;SDS011;9469;51.114;13.914;2023-09-12T10:24:04;12.90;;;5.95;;
18677;SDS011;9469;51.114;13.914;2023-09-12T10:29:15;11.02;;;4.75;;
18677;SDS011;9469;51.114;13.914;2023-09-12T10:34:20;10.45;;;5.55;;
18677;SDS011;9469;51.114;13.914;2023-09-12T10:39:31;9.07;;;4.82;;
18677;SDS011;9469;51.114;13.914;2023-09-12T10:44:39;7.45;;;4.13;;
18677;SDS011;9469;51.114;13.914;2023-09-12T10:49:45;13.25;;;5.40;;
18677;SDS011;9469;51.114;13.914;2023-09-12T10:54:51;8.40;;;5.15;;
18677;SDS011;9469;51.114;13.914;2023-09-12T11:00:11;21.20;;;5.50;;
18677;SDS011;9469;51.114;13.914;2023-09-12T11:05:35;11.93;;;4.97;;
18677;SDS011;9469;51.114;13.914;2023-09-12T11:16:26;7.95;;;4.63;;
18677;SDS011;9469;51.114;13.914;2023-09-12T11:21:33;9.85;;;4.78;;
18677;SDS011;9469;51.114;13.914;2023-09-12T11:32:09;13.57;;;5.28;;
18677;SDS011;9469;51.114;13.914;2023-09-12T11:37:22;10.38;;;5.55;;
18677;SDS011;9469;51.114;13.914;2023-09-12T11:48:11;15.35;;;5.10;;
18677;SDS011;9469;51.114;13.914;2023-09-12T11:53:40;17.90;;;4.80;;
18677;SDS011;9469;51.114;13.914;2023-09-12T11:58:53;9.60;;;3.92;;
18677;SDS011;9469;51.114;13.914;2023-09-12T12:04:01;12.65;;;4.18;;
18677;SDS011;9469;51.114;13.914;2023-09-12T12:09:09;24.35;;;4.95;;
18677;SDS011;9469;51.114;13.914;2023-09-12T12:14:15;16.52;;;4.28;;
18677;SDS011;9469;51.114;13.914;2023-09-12T12:19:25;17.30;;;5.03;;
18677;SDS011;9469;51.114;13.914;2023-09-12T12:24:36;14.05;;;4.72;;
18677;SDS011;9469;51.114;13.914;2023-09-12T12:29:42;14.05;;;4.85;;
18677;SDS011;9469;51.114;13.914;2023-09-12T12:34:50;11.23;;;5.15;;
18677;SDS011;9469;51.114;13.914;2023-09-12T12:40:16;15.05;;;4.53;;
18677;SDS011;9469;51.114;13.914;2023-09-12T12:45:25;11.93;;;4.03;;
18677;SDS011;9469;51.114;13.914;2023-09-12T12:50:34;11.90;;;4.15;;
18677;SDS011;9469;51.114;13.914;2023-09-12T12:55:40;10.68;;;4.30;;
18677;SDS011;9469;51.114;13.914;2023-09-12T13:00:46;17.20;;;5.15;;
18677;SDS011;9469;51.114;13.914;2023-09-12T13:05:54;16.20;;;4.38;;
18677;SDS011;9469;51.114;13.914;2023-09-12T13:10:59;10.82;;;4.82;;
18677;SDS011;9469;51.114;13.914;2023-09-12T13:16:04;12.82;;;4.38;;
18677;SDS011;9469;51.114;13.914;2023-09-12T13:21:14;19.45;;;4.38;;
18677;SDS011;9469;51.114;13.914;2023-09-12T13:26:19;13.50;;;4.68;;
18677;SDS011;9469;51.114;13.914;2023-09-12T13:31:25;13.40;;;4.85;;
18677;SDS011;9469;51.114;13.914;2023-09-12T13:36:33;9.95;;;4.03;;
18677;SDS011;9469;51.114;13.914;2023-09-12T13:41:39;12.15;;;4.15;;
18677;SDS011;9469;51.114;13.914;2023-09-12T13:46:45;13.15;;;4.18;;
18677;SDS011;9469;51.114;13.914;2023-09-12T13:51:56;11.43;;;4.20;;
18677;SDS011;9469;51.114;13.914;2023-09-12T13:57:01;12.32;;;4.32;;
18677;SDS011;9469;51.114;13.914;2023-09-12T14:02:07;16.45;;;4.47;;
18677;SDS011;9469;51.114;13.914;2023-09-12T14:07:15;12.43;;;4.35;;
18677;SDS011;9469;51.114;13.914;2023-09-12T14:12:21;11.93;;;3.75;;
18677;SDS011;9469;51.114;13.914;2023-09-12T14:17:29;11.68;;;4.45;;
18677;SDS011;9469;51.114;13.914;2023-09-12T14:22:39;10.52;;;4.43;;
18677;SDS011;9469;51.114;13.914;2023-09-12T14:27:44;12.50;;;4.97;;
18677;SDS011;9469;51.114;13.914;2023-09-12T14:32:49;9.70;;;4.55;;
18677;SDS011;9469;51.114;13.914;2023-09-12T14:37:57;8.95;;;4.47;;
18677;SDS011;9469;51.114;13.914;2023-09-12T14:43:03;17.52;;;4.55;;
18677;SDS011;9469;51.114;13.914;2023-09-12T14:48:08;13.05;;;4.40;;
18677;SDS011;9469;51.114;13.914;2023-09-12T14:53:16;14.45;;;4.57;;
18677;SDS011;9469;51.114;13.914;2023-09-12T14:58:22;8.07;;;4.18;;
18677;SDS011;9469;51.114;13.914;2023-09-12T15:03:28;15.43;;;4.68;;
18677;SDS011;9469;51.114;13.914;2023-09-12T15:08:40;10.52;;;5.15;;
18677;SDS011;9469;51.114;13.914;2023-09-12T15:13:46;10.10;;;4.00;;
18677;SDS011;9469;51.114;13.914;2023-09-12T15:18:52;14.20;;;4.50;;
18677;SDS011;9469;51.114;13.914;2023-09-12T15:24:00;15.52;;;4.60;;
18677;SDS011;9469;51.114;13.914;2023-09-12T15:29:05;12.70;;;4.20;;
18677;SDS011;9469;51.114;13.914;2023-09-12T15:34:11;16.40;;;4.90;;
18677;SDS011;9469;51.114;13.914;2023-09-12T15:39:18;14.20;;;4.30;;
18677;SDS011;9469;51.114;13.914;2023-09-12T15:44:24;10.57;;;4.20;;
18677;SDS011;9469;51.114;13.914;2023-09-12T15:49:30;14.80;;;3.90;;
18677;SDS011;9469;51.114;13.914;2023-09-12T15:54:38;11.05;;;4.50;;
18677;SDS011;9469;51.114;13.914;2023-09-12T15:59:43;13.77;;;5.25;;
18677;SDS011;9469;51.114;13.914;2023-09-12T16:04:48;11.95;;;4.72;;
18677;SDS011;9469;51.114;13.914;2023-09-12T16:09:56;12.60;;;4.95;;
18677;SDS011;9469;51.114;13.914;2023-09-12T16:15:01;10.98;;;4.47;;
18677;SDS011;9469;51.114;13.914;2023-09-12T16:20:07;10.50;;;4.45;;
18677;SDS011;9469;51.114;13.914;2023-09-12T16:25:18;9.20;;;4.80;;
18677;SDS011;9469;51.114;13.914;2023-09-12T16:30:23;13.75;;;4.93;;
18677;SDS011;9469;51.114;13.914;2023-09-12T16:35:29;14.23;;;5.72;;
18677;SDS011;9469;51.114;13.914;2023-09-12T16:40:37;16.20;;;4.63;;
18677;SDS011;9469;51.114;13.914;2023-09-12T16:45:42;15.07;;;5.50;;
18677;SDS011;9469;51.114;13.914;2023-09-12T16:50:47;13.45;;;5.45;;
18677;SDS011;9469;51.114;13.914;2023-09-12T16:55:56;15.50;;;5.72;;
18677;SDS011;9469;51.114;13.914;2023-09-12T17:01:01;13.43;;;4.90;;
18677;SDS011;9469;51.114;13.914;2023-09-12T17:06:06;12.15;;;5.95;;
18677;SDS011;9469;51.114;13.914;2023-09-12T17:11:15;7.85;;;4.75;;
18677;SDS011;9469;51.114;13.914;2023-09-12T17:16:24;16.83;;;5.85;;
18677;SDS011;9469;51.114;13.914;2023-09-12T17:21:29;10.70;;;5.03;;
18677;SDS011;9469;51.114;13.914;2023-09-12T17:26:37;18.73;;;6.40;;
18677;SDS011;9469;51.114;13.914;2023-09-12T17:31:51;17.58;;;8.20;;
18677;SDS011;9469;51.114;13.914;2023-09-12T17:36:56;10.75;;;6.25;;
18677;SDS011;9469;51.114;13.914;2023-09-12T17:42:04;18.73;;;9.60;;
18677;SDS011;9469;51.114;13.914;2023-09-12T17:47:10;24.00;;;8.10;;
18677;SDS011;9469;51.114;13.914;2023-09-12T17:52:16;18.73;;;8.30;;
18677;SDS011;9469;51.114;13.914;2023-09-12T17:57:27;15.43;;;7.72;;
18677;SDS011;9469;51.114;13.914;2023-09-12T18:02:34;16.27;;;8.52;;
18677;SDS011;9469;51.114;13.914;2023-09-12T18:07:39;15.40;;;5.82;;
18677;SDS011;9469;51.114;13.914;2023-09-12T18:12:48;13.68;;;6.93;;
18677;SDS011;9469;51.114;13.914;2023-09-12T18:17:53;17.45;;;6.85;;
18677;SDS011;9469;51.114;13.914;2023-09-12T18:22:58;16.67;;;6.65;;
18677;SDS011;9469;51.114;13.914;2023-09-12T18:28:07;16.52;;;6.80;;
18677;SDS011;9469;51.114;13.914;2023-09-12T18:33:12;16.05;;;6.78;;
18677;SDS011;9469;51.114;13.914;2023-09-12T18:38:18;13.30;;;5.68;;
18677;SDS011;9469;51.114;13.914;2023-09-12T18:43:26;17.00;;;6.93;;
18677;SDS011;9469;51.114;13.914;2023-09-12T18:48:31;9.80;;;5.68;;
18677;SDS011;9469;51.114;13.914;2023-09-12T18:53:38;11.77;;;6.68;;
18677;SDS011;9469;51.114;13.914;2023-09-12T18:58:46;18.58;;;6.90;;
18677;SDS011;9469;51.114;13.914;2023-09-12T19:03:51;16.35;;;6.75;;
18677;SDS011;9469;51.114;13.914;2023-09-12T19:08:57;11.18;;;6.60;;
18677;SDS011;9469;51.114;13.914;2023-09-12T19:14:05;14.77;;;6.63;;
18677;SDS011;9469;51.114;13.914;2023-09-12T19:19:13;11.95;;;7.00;;
18677;SDS011;9469;51.114;13.914;2023-09-12T19:24:18;19.35;;;9.73;;
18677;SDS011;9469;51.114;13.914;2023-09-12T19:29:26;17.98;;;8.07;;
18677;SDS011;9469;51.114;13.914;2023-09-12T19:34:31;12.60;;;6.70;;
18677;SDS011;9469;51.114;13.914;2023-09-12T19:39:36;20.23;;;7.63;;
18677;SDS011;9469;51.114;13.914;2023-09-12T19:44:45;16.13;;;8.23;;
18677;SDS011;9469;51.114;13.914;2023-09-12T19:49:53;17.15;;;8.82;;
18677;SDS011;9469;51.114;13.914;2023-09-12T19:55:03;13.88;;;7.72;;
18677;SDS011;9469;51.114;13.914;2023-09-12T20:00:26;16.08;;;7.57;;
18677;SDS011;9469;51.114;13.914;2023-09-12T20:05:32;16.55;;;7.13;;
18677;SDS011;9469;51.114;13.914;2023-09-12T20:10:37;14.48;;;7.43;;
18677;SDS011;9469;51.114;13.914;2023-09-12T20:15:48;13.75;;;7.65;;
18677;SDS011;9469;51.114;13.914;2023-09-12T20:20:53;16.67;;;7.80;;
18677;SDS011;9469;51.114;13.914;2023-09-12T20:26:01;12.83;;;7.33;;
18677;SDS011;9469;51.114;13.914;2023-09-12T20:31:12;17.60;;;7.33;;
18677;SDS011;9469;51.114;13.914;2023-09-12T20:36:19;11.50;;;7.57;;
18677;SDS011;9469;51.114;13.914;2023-09-12T20:41:26;11.10;;;7.37;;
18677;SDS011;9469;51.114;13.914;2023-09-12T20:46:34;14.17;;;7.80;;
18677;SDS011;9469;51.114;13.914;2023-09-12T20:51:43;14.03;;;7.50;;
18677;SDS011;9469;51.114;13.914;2023-09-12T20:56:50;13.73;;;8.27;;
18677;SDS011;9469;51.114;13.914;2023-09-12T21:01:58;12.77;;;7.10;;
18677;SDS011;9469;51.114;13.914;2023-09-12T21:07:03;14.90;;;7.97;;
18677;SDS011;9469;51.114;13.914;2023-09-12T21:12:09;18.03;;;7.63;;
18677;SDS011;9469;51.114;13.914;2023-09-12T21:17:16;13.83;;;8.30;;
18677;SDS011;9469;51.114;13.914;2023-09-12T21:22:22;16.20;;;8.83;;
18677;SDS011;9469;51.114;13.914;2023-09-12T21:27:32;16.37;;;7.93;;
18677;SDS011;9469;51.114;13.914;2023-09-12T21:32:40;14.97;;;7.37;;
18677;SDS011;9469;51.114;13.914;2023-09-12T21:37:46;15.27;;;8.87;;
18677;SDS011;9469;51.114;13.914;2023-09-12T21:42:52;15.87;;;8.57;;
18677;SDS011;9469;51.114;13.914;2023-09-12T21:47:59;16.93;;;8.73;;
18677;SDS011;9469;51.114;13.914;2023-09-12T21:53:05;14.63;;;7.83;;
18677;SDS011;9469;51.114;13.914;2023-09-12T21:58:10;16.47;;;8.43;;
18677;SDS011;9469;51.114;13.914;2023-09-12T22:03:18;12.57;;;7.33;;
18677;SDS011;9469;51.114;13.914;2023-09-12T22:08:25;11.30;;;7.57;;
18677;SDS011;9469;51.114;13.914;2023-09-12T22:13:30;16.23;;;7.93;;
18677;SDS011;9469;51.114;13.914;2023-09-12T22:18:38;13.03;;;8.37;;
18677;SDS011;9469;51.114;13.914;2023-09-12T22:23:43;11.90;;;7.90;;
18677;SDS011;9469;51.114;13.914;2023-09-12T22:28:48;15.53;;;8.37;;
18677;SDS011;9469;51.114;13.914;2023-09-12T22:33:56;12.30;;;8.50;;
18677;SDS011;9469;51.114;13.914;2023-09-12T22:39:01;8.90;;;7.70;;
18677;SDS011;9469;51.114;13.914;2023-09-12T22:44:08;20.13;;;8.87;;
18677;SDS011;9469;51.114;13.914;2023-09-12T22:49:15;21.83;;;9.10;;
18677;SDS011;9469;51.114;13.914;2023-09-12T22:54:21;15.67;;;8.90;;
18677;SDS011;9469;51.114;13.914;2023-09-12T22:59:27;11.60;;;8.50;;
18677;SDS011;9469;51.114;13.914;2023-09-12T23:04:35;18.20;;;8.50;;
18677;SDS011;9469;51.114;13.914;2023-09-12T23:09:40;15.97;;;8.03;;
18677;SDS011;9469;51.114;13.914;2023-09-12T23:14:45;15.57;;;8.40;;
18677;SDS011;9469;51.114;13.914;2023-09-12T23:19:58;18.27;;;8.80;;
18677;SDS011;9469;51.114;13.914;2023-09-12T23:25:04;14.80;;;9.33;;
18677;SDS011;9469;51.114;13.914;2023-09-12T23:30:10;14.37;;;8.13;;
18677;SDS011;9469;51.114;13.914;2023-09-12T23:35:21;12.87;;;8.63;;
18677;SDS011;9469;51.114;13.914;2023-09-12T23:40:26;13.30;;;8.50;;
18677;SDS011;9469;51.114;13.914;2023-09-12T23:45:31;14.83;;;8.83;;
18677;SDS011;9469;51.114;13.914;2023-09-12T23:50:39;12.43;;;8.10;;
18677;SDS011;9469;51.114;13.914;2023-09-12T23:55:44;13.57;;;8.37;;
